createdAt,value
2018-09-22T00:02:03.554Z,99270.16
2018-09-22T00:04:32.948Z,99271.58
2018-09-22T00:07:03.606Z,99273.11
2018-09-22T00:09:32.514Z,99265.97
2018-09-22T00:12:02.407Z,99263.86
2018-09-22T00:14:31.435Z,99268.41
2018-09-22T00:17:00.441Z,99267.38
2018-09-22T00:19:29.626Z,99267.73
2018-09-22T00:22:05.177Z,99278.69
2018-09-22T00:24:34.460Z,99271.06
2018-09-22T00:27:03.432Z,99274.68
2018-09-22T00:29:32.541Z,99269.77
2018-09-22T00:32:01.545Z,99269.99
2018-09-22T00:34:30.544Z,99270.77
2018-09-22T00:36:59.664Z,99267.05
2018-09-22T00:39:28.958Z,99261.00
2018-09-22T00:41:57.904Z,99263.50
2018-09-22T00:44:28.401Z,99262.07
2018-09-22T00:46:57.750Z,99259.71
2018-09-22T00:49:26.762Z,99262.61
2018-09-22T00:51:55.683Z,99257.31
2018-09-22T00:54:24.990Z,99252.84
2018-09-22T00:56:54.041Z,99255.47
2018-09-22T00:59:23.368Z,99252.45
2018-09-22T01:01:53.161Z,99253.50
2018-09-22T01:04:22.239Z,99251.09
2018-09-22T01:06:51.413Z,99251.01
2018-09-22T01:09:20.846Z,99256.97
2018-09-22T01:11:50.139Z,99252.20
2018-09-22T01:14:19.414Z,99249.13
2018-09-22T01:16:49.102Z,99254.72
2018-09-22T01:19:18.138Z,99254.44
2018-09-22T01:21:47.101Z,99258.67
2018-09-22T01:24:16.433Z,99242.48
2018-09-22T01:26:45.447Z,99242.27
2018-09-22T01:29:15.532Z,99245.49
2018-09-22T01:31:45.473Z,99247.31
2018-09-22T01:34:14.844Z,99246.40
2018-09-22T01:36:43.844Z,99243.30
2018-09-22T01:39:13.629Z,99244.30
2018-09-22T01:41:42.799Z,99238.59
2018-09-22T01:44:12.559Z,99241.70
2018-09-22T01:46:41.681Z,99244.13
2018-09-22T01:49:10.884Z,99237.70
2018-09-22T01:51:40.424Z,99240.83
2018-09-22T01:54:09.492Z,99239.69
2018-09-22T01:56:38.672Z,99243.02
2018-09-22T01:59:08.623Z,99241.05
2018-09-22T02:01:38.594Z,99241.66
2018-09-22T02:04:07.746Z,99247.23
2018-09-22T02:06:37.425Z,99249.26
2018-09-22T02:09:09.063Z,99260.48
2018-09-22T02:11:38.113Z,99259.17
2018-09-22T02:14:07.126Z,99259.66
2018-09-22T02:16:36.562Z,99263.25
2018-09-22T02:19:06.024Z,99257.09
2018-09-22T02:21:35.121Z,99255.02
2018-09-22T02:24:05.159Z,99262.02
2018-09-22T02:26:36.067Z,99259.69
2018-09-22T02:29:05.170Z,99260.63
2018-09-22T02:31:35.080Z,99259.12
2018-09-22T02:34:04.605Z,99252.00
2018-09-22T02:36:33.614Z,99258.98
2018-09-22T02:39:02.862Z,99263.02
2018-09-22T02:41:31.862Z,99252.50
2018-09-22T02:44:01.327Z,99259.95
2018-09-22T02:46:31.207Z,99261.73
2018-09-22T02:49:00.153Z,99252.51
2018-09-22T02:51:29.073Z,99256.59
2018-09-22T02:53:59.420Z,99262.50
2018-09-22T02:56:28.969Z,99255.63
2018-09-22T02:58:57.957Z,99253.69
2018-09-22T03:01:26.981Z,99249.26
2018-09-22T03:03:56.124Z,99249.31
2018-09-22T03:06:25.686Z,99250.11
2018-09-22T03:08:55.093Z,99254.22
2018-09-22T03:11:23.978Z,99252.21
2018-09-22T03:13:52.971Z,99253.09
2018-09-22T03:16:25.505Z,99247.77
2018-09-22T03:18:54.583Z,99246.53
2018-09-22T03:23:59.196Z,99251.53
2018-09-22T03:26:29.849Z,99249.81
2018-09-22T03:28:59.786Z,99250.86
2018-09-22T03:31:29.126Z,99248.54
2018-09-22T03:33:58.336Z,99245.67
2018-09-22T03:36:28.379Z,99253.45
2018-09-22T03:38:57.707Z,99250.12
2018-09-22T03:41:27.456Z,99244.52
2018-09-22T03:43:56.405Z,99245.44
2018-09-22T03:46:25.942Z,99250.16
2018-09-22T03:48:55.750Z,99252.76
2018-09-22T03:51:25.952Z,99253.36
2018-09-22T03:53:55.982Z,99252.78
2018-09-22T03:56:24.936Z,99253.72
2018-09-22T03:58:54.430Z,99254.58
2018-09-22T04:01:23.522Z,99255.48
2018-09-22T04:03:53.232Z,99255.02
2018-09-22T04:06:22.208Z,99254.64
2018-09-22T04:08:51.529Z,99253.96
2018-09-22T04:11:20.910Z,99258.18
2018-09-22T04:13:50.465Z,99252.59
2018-09-22T04:16:19.511Z,99246.45
2018-09-22T04:18:48.436Z,99251.51
2018-09-22T04:21:17.407Z,99254.81
2018-09-22T04:23:46.716Z,99254.66
2018-09-22T04:26:15.655Z,99249.30
2018-09-22T04:28:44.577Z,99256.30
2018-09-22T04:31:13.564Z,99253.09
2018-09-22T04:33:43.137Z,99246.14
2018-09-22T04:36:12.102Z,99221.72
2018-09-22T04:38:41.094Z,99243.43
2018-09-22T04:41:10.102Z,99243.31
2018-09-22T04:43:39.196Z,99243.17
2018-09-22T04:46:08.145Z,99239.11
2018-09-22T04:48:37.109Z,99240.53
2018-09-22T04:51:06.209Z,99237.94
2018-09-22T04:53:35.126Z,99236.14
2018-09-22T04:56:04.144Z,99236.60
2018-09-22T04:58:33.106Z,99226.58
2018-09-22T05:01:02.058Z,99224.47
2018-09-22T05:03:31.597Z,99227.25
2018-09-22T05:06:00.601Z,99230.02
2018-09-22T05:08:29.569Z,99234.91
2018-09-22T05:10:58.553Z,99238.45
2018-09-22T05:13:27.581Z,99238.19
2018-09-22T05:15:57.381Z,99232.52
2018-09-22T05:18:26.726Z,99240.04
2018-09-22T05:20:55.774Z,99244.35
2018-09-22T05:23:24.868Z,99248.55
2018-09-22T05:25:53.897Z,99247.94
2018-09-22T05:28:23.004Z,99252.23
2018-09-22T05:30:52.068Z,99249.58
2018-09-22T05:33:21.091Z,99247.00
2018-09-22T05:35:50.662Z,99243.31
2018-09-22T05:38:20.146Z,99249.02
2018-09-22T05:40:49.265Z,99250.11
2018-09-22T05:43:18.706Z,99242.70
2018-09-22T05:45:47.827Z,99257.13
2018-09-22T05:48:16.803Z,99254.41
2018-09-22T05:50:45.794Z,99254.84
2018-09-22T05:53:15.156Z,99257.31
2018-09-22T05:55:45.174Z,99255.76
2018-09-22T05:58:14.213Z,99262.09
2018-09-22T06:00:43.277Z,99253.20
2018-09-22T06:03:12.279Z,99259.36
2018-09-22T06:05:41.320Z,99238.20
2018-09-22T06:08:10.267Z,99251.55
2018-09-22T06:10:39.342Z,99252.44
2018-09-22T06:13:08.718Z,99262.11
2018-09-22T06:15:38.041Z,99260.73
2018-09-22T06:18:07.023Z,99266.95
2018-09-22T06:20:36.008Z,99268.84
2018-09-22T06:23:05.385Z,99270.35
2018-09-22T06:25:34.282Z,99274.98
2018-09-22T06:28:03.431Z,99277.31
2018-09-22T06:30:32.749Z,99285.27
2018-09-22T06:33:01.731Z,99285.64
2018-09-22T06:35:30.850Z,99287.61
2018-09-22T06:37:59.910Z,99290.66
2018-09-22T06:40:28.967Z,99288.89
2018-09-22T06:42:57.928Z,99296.70
2018-09-22T06:45:27.221Z,99297.13
2018-09-22T06:47:56.169Z,99309.03
2018-09-22T06:50:25.113Z,99308.03
2018-09-22T06:52:54.434Z,99309.46
2018-09-22T06:55:24.496Z,99304.94
2018-09-22T06:57:53.476Z,99307.27
2018-09-22T07:00:22.493Z,99310.53
2018-09-22T07:02:51.470Z,99312.06
2018-09-22T07:05:20.530Z,99307.52
2018-09-22T07:07:49.569Z,99308.31
2018-09-22T07:10:18.546Z,99306.03
2018-09-22T07:12:47.478Z,99296.88
2018-09-22T07:15:17.331Z,99299.21
2018-09-22T07:17:46.357Z,99298.10
2018-09-22T07:20:15.761Z,99300.30
2018-09-22T07:22:50.302Z,99299.63
2018-09-22T07:25:20.227Z,99301.98
2018-09-22T07:27:50.425Z,99300.02
2018-09-22T07:30:19.935Z,99302.41
2018-09-22T07:32:48.916Z,99302.08
2018-09-22T07:35:18.088Z,99303.89
2018-09-22T07:37:47.050Z,99300.58
2018-09-22T07:40:16.034Z,99299.84
2018-09-22T07:42:44.954Z,99307.75
2018-09-22T07:45:14.684Z,99306.27
2018-09-22T07:47:43.756Z,99304.45
2018-09-22T07:50:12.764Z,99300.48
2018-09-22T07:52:42.079Z,99298.42
2018-09-22T07:55:11.068Z,99302.34
2018-09-22T07:57:40.070Z,99299.80
2018-09-22T08:00:09.242Z,99291.66
2018-09-22T08:02:38.193Z,99297.88
2018-09-22T08:05:07.689Z,99289.02
2018-09-22T08:07:36.937Z,99284.63
2018-09-22T08:10:05.937Z,99280.94
2018-09-22T08:12:34.890Z,99280.14
2018-09-22T08:15:04.045Z,99277.92
2018-09-22T08:17:33.098Z,99274.75
2018-09-22T08:20:02.365Z,99271.44
2018-09-22T08:22:31.758Z,99265.05
2018-09-22T08:25:00.828Z,99265.62
2018-09-22T08:27:29.892Z,99264.77
2018-09-22T08:29:59.024Z,99263.69
2018-09-22T08:32:28.055Z,99259.93
2018-09-22T08:34:57.125Z,99259.81
2018-09-22T08:37:26.636Z,99255.92
2018-09-22T08:39:55.647Z,99250.48
2018-09-22T08:42:25.381Z,99253.52
2018-09-22T08:44:54.838Z,99252.52
2018-09-22T08:47:24.799Z,99252.69
2018-09-22T08:49:54.583Z,99248.01
2018-09-22T08:52:24.966Z,99239.23
2018-09-22T08:54:54.653Z,99239.48
2018-09-22T08:57:23.719Z,99237.58
2018-09-22T08:59:53.139Z,99232.61
2018-09-22T09:02:22.267Z,99227.66
2018-09-22T09:04:51.444Z,99225.75
2018-09-22T09:07:20.553Z,99225.50
2018-09-22T09:09:49.652Z,99225.59
2018-09-22T09:12:18.737Z,99218.72
2018-09-22T09:14:48.141Z,99215.98
2018-09-22T09:17:17.249Z,99214.34
2018-09-22T09:19:46.576Z,99213.80
2018-09-22T09:22:15.721Z,99219.56
2018-09-22T09:24:44.857Z,99215.98
2018-09-22T09:27:14.008Z,99209.37
2018-09-22T09:29:43.165Z,99205.18
2018-09-22T09:32:12.353Z,99201.21
2018-09-22T09:34:41.481Z,99199.20
2018-09-22T09:37:11.022Z,99197.52
2018-09-22T09:39:40.143Z,99187.38
2018-09-22T09:42:09.285Z,99185.48
2018-09-22T09:44:38.441Z,99187.70
2018-09-22T09:47:07.668Z,99183.70
2018-09-22T09:49:36.785Z,99184.80
2018-09-22T09:52:06.002Z,99177.63
2018-09-22T09:54:35.210Z,99178.59
2018-09-22T09:57:04.351Z,99179.19
2018-09-22T09:59:33.782Z,99178.95
2018-09-22T10:02:02.992Z,99174.56
2018-09-22T10:04:32.344Z,99177.47
2018-09-22T10:07:01.532Z,99173.36
2018-09-22T10:09:30.712Z,99171.86
2018-09-22T10:11:59.842Z,99174.28
2018-09-22T10:14:29.965Z,99166.95
2018-09-22T10:16:59.078Z,99164.11
2018-09-22T10:19:28.200Z,99160.95
2018-09-22T10:21:57.645Z,99163.48
2018-09-22T10:24:26.804Z,99162.97
2018-09-22T10:26:55.994Z,99160.31
2018-09-22T10:29:26.178Z,99152.16
2018-09-22T10:31:55.377Z,99154.00
2018-09-22T10:34:24.544Z,99142.58
2018-09-22T10:36:54.237Z,99147.66
2018-09-22T10:39:23.338Z,99136.97
2018-09-22T10:41:52.531Z,99141.13
2018-09-22T10:44:21.691Z,99138.56
2018-09-22T10:46:50.832Z,99133.81
2018-09-22T10:49:19.942Z,99124.25
2018-09-22T10:51:49.419Z,99129.95
2018-09-22T10:54:18.498Z,99126.94
2018-09-22T10:56:47.661Z,99124.98
2018-09-22T10:59:17.166Z,99121.52
2018-09-22T11:01:47.351Z,99122.86
2018-09-22T11:04:16.473Z,99113.64
2018-09-22T11:06:45.641Z,99114.45
2018-09-22T11:09:14.811Z,99115.73
2018-09-22T11:11:43.968Z,99110.34
2018-09-22T11:14:13.474Z,99107.06
2018-09-22T11:16:42.627Z,99100.63
2018-09-22T11:19:11.747Z,99106.73
2018-09-22T11:21:40.923Z,99100.16
2018-09-22T11:24:10.056Z,99093.53
2018-09-22T11:26:39.202Z,99101.64
2018-09-22T11:29:08.696Z,99093.14
2018-09-22T11:31:37.854Z,99085.66
2018-09-22T11:34:07.134Z,99088.56
2018-09-22T11:36:36.707Z,99089.69
2018-09-22T11:39:08.357Z,99084.16
2018-09-22T11:41:37.926Z,99079.34
2018-09-22T11:44:07.300Z,99079.23
2018-09-22T11:46:36.992Z,99084.61
2018-09-22T11:49:06.808Z,99076.27
2018-09-22T11:51:36.038Z,99080.73
2018-09-22T11:54:05.212Z,99073.88
2018-09-22T11:56:34.476Z,99074.24
2018-09-22T11:59:03.707Z,99073.76
2018-09-22T12:01:32.893Z,99079.03
2018-09-22T12:04:02.426Z,99069.44
2018-09-22T12:06:31.669Z,99068.14
2018-09-22T12:09:01.116Z,99063.84
2018-09-22T12:11:30.651Z,99067.50
2018-09-22T12:13:59.812Z,99060.80
2018-09-22T12:16:28.976Z,99057.52
2018-09-22T12:18:58.271Z,99058.43
2018-09-22T12:21:29.149Z,99049.27
2018-09-22T12:23:59.539Z,99045.38
2018-09-22T12:26:28.716Z,99038.52
2018-09-22T12:28:58.326Z,99030.72
2018-09-22T12:31:28.226Z,99033.56
2018-09-22T12:33:57.375Z,99030.95
2018-09-22T12:36:29.214Z,99025.80
2018-09-22T12:38:59.340Z,99025.91
2018-09-22T12:41:28.518Z,99020.72
2018-09-22T12:43:58.183Z,99029.27
2018-09-22T12:46:27.428Z,99032.20
2018-09-22T12:48:56.556Z,99026.03
2018-09-22T12:51:27.619Z,99019.75
2018-09-22T12:53:56.718Z,99023.11
2018-09-22T12:56:26.003Z,99018.61
2018-09-22T12:58:55.206Z,99018.23
2018-09-22T13:01:24.316Z,99016.00
2018-09-22T13:03:53.797Z,99010.89
2018-09-22T13:06:23.372Z,99009.05
2018-09-22T13:08:54.138Z,99004.49
2018-09-22T13:11:23.347Z,99011.34
2018-09-22T13:13:53.278Z,99002.73
2018-09-22T13:16:22.415Z,99007.09
2018-09-22T13:18:51.558Z,99007.27
2018-09-22T13:21:21.006Z,99005.44
2018-09-22T13:23:50.142Z,99005.23
2018-09-22T13:26:19.341Z,99000.62
2018-09-22T13:28:48.538Z,98999.75
2018-09-22T13:31:17.745Z,98995.97
2018-09-22T13:33:46.863Z,98992.52
2018-09-22T13:36:16.321Z,98994.63
2018-09-22T13:38:45.523Z,98988.66
2018-09-22T13:41:14.631Z,98992.00
2018-09-22T13:43:44.082Z,98986.66
2018-09-22T13:46:13.336Z,98990.30
2018-09-22T13:48:42.488Z,98994.67
2018-09-22T13:51:11.956Z,98986.16
2018-09-22T13:53:41.392Z,98986.83
2018-09-22T13:56:10.548Z,98991.21
2018-09-22T13:58:40.413Z,98982.43
2018-09-22T14:01:09.536Z,98989.83
2018-09-22T14:03:38.939Z,98988.95
2018-09-22T14:06:08.577Z,98987.83
2018-09-22T14:08:37.702Z,98987.19
2018-09-22T14:11:07.047Z,98989.67
2018-09-22T14:13:36.603Z,98988.28
2018-09-22T14:16:05.769Z,98990.70
2018-09-22T14:18:35.155Z,98988.27
2018-09-22T14:21:04.723Z,98992.09
2018-09-22T14:23:33.920Z,98987.10
2018-09-22T14:26:03.241Z,98988.80
2018-09-22T14:28:33.194Z,98990.70
2018-09-22T14:31:02.597Z,98992.44
2018-09-22T14:33:31.734Z,98985.58
2018-09-22T14:36:01.239Z,98982.09
2018-09-22T14:38:30.697Z,98983.23
2018-09-22T14:40:59.819Z,98977.58
2018-09-22T14:43:29.288Z,98976.61
2018-09-22T14:45:58.495Z,98984.60
2018-09-22T14:48:27.629Z,98984.72
2018-09-22T14:50:57.049Z,98982.83
2018-09-22T14:53:26.267Z,98985.48
2018-09-22T14:55:55.408Z,98985.69
2018-09-22T14:58:25.017Z,98981.34
2018-09-22T15:00:54.138Z,98982.43
2018-09-22T15:03:23.271Z,98982.16
2018-09-22T15:05:52.809Z,98988.73
2018-09-22T15:08:21.878Z,98984.94
2018-09-22T15:10:51.335Z,98980.84
2018-09-22T15:13:20.712Z,98988.59
2018-09-22T15:15:49.782Z,98983.61
2018-09-22T15:18:18.856Z,98978.55
2018-09-22T15:20:48.316Z,98985.03
2018-09-22T15:23:17.418Z,98986.69
2018-09-22T15:25:46.524Z,98987.64
2018-09-22T15:28:15.930Z,98984.93
2018-09-22T15:30:45.056Z,98986.22
2018-09-22T15:33:14.151Z,98980.67
2018-09-22T15:35:43.272Z,98989.04
2018-09-22T15:38:12.376Z,98990.21
2018-09-22T15:40:41.921Z,98992.63
2018-09-22T15:43:11.343Z,98998.78
2018-09-22T15:45:40.632Z,99000.52
2018-09-22T15:48:09.720Z,99002.70
2018-09-22T15:50:39.251Z,99002.87
2018-09-22T15:53:08.353Z,99000.75
2018-09-22T15:55:37.450Z,99001.56
2018-09-22T15:58:07.995Z,99002.22
2018-09-22T16:00:37.160Z,99007.27
2018-09-22T16:03:06.289Z,99010.75
2018-09-22T16:05:35.683Z,99017.95
2018-09-22T16:08:04.938Z,99013.89
2018-09-22T16:10:34.050Z,99018.12
2018-09-22T16:13:03.518Z,99018.78
2018-09-22T16:15:32.618Z,99017.77
2018-09-22T16:18:02.298Z,99016.22
2018-09-22T16:20:31.754Z,99020.03
2018-09-22T16:23:00.886Z,99022.12
2018-09-22T16:25:30.058Z,99018.05
2018-09-22T16:27:59.270Z,99019.28
2018-09-22T16:30:28.398Z,99018.87
2018-09-22T16:32:57.557Z,99027.39
2018-09-22T16:35:28.075Z,99031.09
2018-09-22T16:37:57.208Z,99033.55
2018-09-22T16:40:26.340Z,99028.82
2018-09-22T16:42:55.877Z,99032.84
2018-09-22T16:45:24.992Z,99031.17
2018-09-22T16:47:54.080Z,99032.94
2018-09-22T16:50:23.593Z,99038.27
2018-09-22T16:52:52.707Z,99044.34
2018-09-22T16:55:21.845Z,99046.00
2018-09-22T16:57:51.056Z,99052.14
2018-09-22T17:00:21.781Z,99055.77
2018-09-22T17:02:50.881Z,99058.75
2018-09-22T17:05:21.349Z,99058.84
2018-09-22T17:07:50.492Z,99057.47
2018-09-22T17:10:19.558Z,99061.59
2018-09-22T17:12:49.083Z,99057.41
2018-09-22T17:15:19.095Z,99063.51
2018-09-22T17:17:48.836Z,99065.74
2018-09-22T17:20:18.319Z,99069.95
2018-09-22T17:22:47.503Z,99074.64
2018-09-22T17:25:16.596Z,99076.83
2018-09-22T17:27:46.126Z,99081.48
2018-09-22T17:30:16.265Z,99086.52
2018-09-22T17:32:45.334Z,99084.53
2018-09-22T17:35:15.468Z,99084.48
2018-09-22T17:37:44.617Z,99094.09
2018-09-22T17:40:13.733Z,99102.92
2018-09-22T17:42:44.176Z,99113.69
2018-09-22T17:45:13.438Z,99114.75
2018-09-22T17:47:42.574Z,99124.17
2018-09-22T17:50:12.562Z,99119.56
2018-09-22T17:52:41.764Z,99125.95
2018-09-22T17:55:12.194Z,99132.80
2018-09-22T17:57:41.424Z,99133.63
2018-09-22T18:00:10.853Z,99137.22
2018-09-22T18:02:40.024Z,99134.77
2018-09-22T18:05:09.552Z,99138.33
2018-09-22T18:07:39.167Z,99141.10
2018-09-22T18:10:08.292Z,99140.81
2018-09-22T18:12:38.926Z,99145.50
2018-09-22T18:15:08.168Z,99146.61
2018-09-22T18:17:37.330Z,99147.17
2018-09-22T18:20:06.666Z,99149.09
2018-09-22T18:22:35.861Z,99152.14
2018-09-22T18:25:05.205Z,99157.93
2018-09-22T18:27:34.761Z,99160.39
2018-09-22T18:30:04.020Z,99161.22
2018-09-22T18:32:33.140Z,99159.02
2018-09-22T18:35:02.479Z,99166.72
2018-09-22T18:37:31.620Z,99161.19
2018-09-22T18:40:00.794Z,99163.41
2018-09-22T18:42:31.042Z,99165.05
2018-09-22T18:45:00.791Z,99158.14
2018-09-22T18:47:29.961Z,99150.72
2018-09-22T18:50:00.086Z,99152.39
2018-09-22T18:52:29.231Z,99146.89
2018-09-22T18:54:58.378Z,99146.89
2018-09-22T18:57:27.581Z,99144.39
2018-09-22T18:59:56.776Z,99147.67
2018-09-22T19:02:27.460Z,99149.90
2018-09-22T19:04:58.305Z,99139.42
2018-09-22T19:07:27.752Z,99138.08
2018-09-22T19:09:57.712Z,99143.28
2018-09-22T19:12:27.707Z,99144.66
2018-09-22T19:15:12.935Z,99147.35
2018-09-22T19:17:47.628Z,99152.03
2018-09-22T19:20:24.814Z,99154.78
2018-09-22T19:22:57.874Z,99153.12
2018-09-22T19:25:30.587Z,99161.59
2018-09-22T19:28:04.066Z,99159.66
2018-09-22T19:30:42.403Z,99169.47
2018-09-22T19:34:16.953Z,99178.70
2018-09-22T19:36:51.819Z,99176.73
2018-09-22T19:39:32.948Z,99178.98
2018-09-22T19:42:11.913Z,99176.08
2018-09-22T19:44:45.456Z,99187.58
2018-09-22T19:47:17.915Z,99178.31
2018-09-22T19:50:04.833Z,99192.66
2018-09-22T19:52:50.537Z,99198.11
2018-09-22T19:55:20.713Z,99196.41
2018-09-22T19:57:50.868Z,99194.88
2018-09-22T20:00:20.318Z,99195.28
2018-09-22T20:02:49.549Z,99193.83
2018-09-22T20:05:18.742Z,99193.98
2018-09-22T20:07:47.909Z,99199.99
2018-09-22T20:10:17.354Z,99203.99
2018-09-22T20:12:46.549Z,99203.99
2018-09-22T20:15:15.677Z,99204.77
2018-09-22T20:17:45.180Z,99210.13
2018-09-22T20:20:14.280Z,99213.68
2018-09-22T20:22:43.460Z,99216.91
2018-09-22T20:25:12.892Z,99212.61
2018-09-22T20:27:41.998Z,99211.70
2018-09-22T20:30:12.771Z,99215.70
2018-09-22T20:32:43.137Z,99218.97
2018-09-22T20:35:13.838Z,99219.79
2018-09-22T20:37:42.940Z,99220.30
2018-09-22T20:40:12.441Z,99228.77
2018-09-22T20:42:41.579Z,99231.08
2018-09-22T20:45:10.694Z,99239.67
2018-09-22T20:47:40.140Z,99240.11
2018-09-22T20:50:09.351Z,99247.32
2018-09-22T20:52:38.445Z,99260.47
2018-09-22T20:55:08.118Z,99258.80
2018-09-22T20:57:37.356Z,99264.19
2018-09-22T21:00:07.641Z,99262.34
2018-09-22T21:02:37.154Z,99265.41
2018-09-22T21:05:06.360Z,99272.33
2018-09-22T21:07:35.834Z,99271.70
2018-09-22T21:10:05.369Z,99276.39
2018-09-22T21:12:34.497Z,99289.02
2018-09-22T21:15:03.585Z,99278.81
2018-09-22T21:17:32.966Z,99275.02
2018-09-22T21:20:02.039Z,99271.94
2018-09-22T21:22:31.121Z,99264.96
2018-09-22T21:25:00.578Z,99268.19
2018-09-22T21:27:29.671Z,99261.03
2018-09-22T21:29:58.720Z,99260.56
2018-09-22T21:32:28.195Z,99255.24
2018-09-22T21:34:57.281Z,99249.58
2018-09-22T21:37:26.377Z,99242.16
2018-09-22T21:39:55.784Z,99238.37
2018-09-22T21:42:24.859Z,99236.68
2018-09-22T21:44:54.019Z,99245.20
2018-09-22T21:47:23.237Z,99257.34
2018-09-22T21:49:52.223Z,99257.53
2018-09-22T21:52:21.270Z,99263.18
2018-09-22T21:54:50.732Z,99262.07
2018-09-22T21:57:19.716Z,99268.20
2018-09-22T21:59:48.782Z,99265.68
2018-09-22T22:02:18.292Z,99269.91
2018-09-22T22:04:47.382Z,99272.41
2018-09-22T22:07:16.419Z,99286.07
2018-09-22T22:09:45.510Z,99290.24
2018-09-22T22:12:14.579Z,99289.02
2018-09-22T22:14:43.671Z,99293.50
2018-09-22T22:17:13.062Z,99295.45
2018-09-22T22:19:42.913Z,99291.94
2018-09-22T22:22:11.979Z,99290.14
2018-09-22T22:24:41.813Z,99291.66
2018-09-22T22:27:10.930Z,99289.39
2018-09-22T22:29:39.995Z,99286.09
2018-09-22T22:32:09.430Z,99279.19
2018-09-22T22:34:38.466Z,99279.91
2018-09-22T22:37:07.545Z,99269.00
2018-09-22T22:39:36.889Z,99273.61
2018-09-22T22:42:05.964Z,99274.01
2018-09-22T22:44:34.999Z,99276.77
2018-09-22T22:47:04.442Z,99272.13
2018-09-22T22:49:33.511Z,99270.09
2018-09-22T22:52:02.605Z,99275.33
2018-09-22T22:54:31.730Z,99278.45
2018-09-22T22:57:00.791Z,99277.08
2018-09-22T22:59:29.897Z,99288.63
2018-09-22T23:01:59.345Z,99291.51
2018-09-22T23:04:28.414Z,99297.98
2018-09-22T23:06:57.455Z,99300.55
2018-09-22T23:09:26.606Z,99296.98
2018-09-22T23:11:55.695Z,99293.81
2018-09-22T23:14:24.736Z,99297.47
2018-09-22T23:16:53.834Z,99300.71
2018-09-22T23:19:22.889Z,99294.33
2018-09-22T23:21:51.899Z,99297.50
2018-09-22T23:24:21.209Z,99293.98
2018-09-22T23:26:50.281Z,99293.98
2018-09-22T23:29:19.401Z,99294.18
2018-09-22T23:31:48.787Z,99285.18
2018-09-22T23:34:17.827Z,99282.72
2018-09-22T23:36:46.861Z,99290.10
2018-09-22T23:39:15.945Z,99286.73
2018-09-22T23:41:44.990Z,99287.13
2018-09-22T23:44:14.012Z,99284.87
2018-09-22T23:46:43.367Z,99275.16
2018-09-22T23:49:12.443Z,99271.30
2018-09-22T23:51:41.478Z,99272.96
2018-09-22T23:54:10.556Z,99268.95
2018-09-22T23:56:39.575Z,99259.95
2018-09-22T23:59:08.606Z,99258.03
